createdAt,value
2023-05-14T00:00:58.840Z,9.25
2023-05-14T00:03:34.283Z,8.70
2023-05-14T00:06:07.023Z,9.35
2023-05-14T00:08:43.149Z,8.77
2023-05-14T00:11:17.943Z,9.52
2023-05-14T00:13:53.853Z,9.13
2023-05-14T00:16:28.861Z,9.27
2023-05-14T00:19:02.832Z,8.90
2023-05-14T00:21:37.655Z,9.15
2023-05-14T00:24:16.155Z,9.75
2023-05-14T00:26:50.878Z,9.50
2023-05-14T00:35:59.576Z,8.75
2023-05-14T00:38:34.921Z,8.63
2023-05-14T00:41:13.521Z,8.93
2023-05-14T00:43:46.279Z,9.00
2023-05-14T00:46:20.018Z,8.82
2023-05-14T00:49:06.939Z,9.55
2023-05-14T00:51:41.857Z,8.98
2023-05-14T00:54:53.040Z,8.75
2023-05-14T00:57:31.217Z,8.25
2023-05-14T01:00:11.086Z,8.18
2023-05-14T01:02:45.542Z,9.13
2023-05-14T01:05:21.395Z,8.35
2023-05-14T01:08:05.836Z,8.85
2023-05-14T01:10:58.283Z,9.50
2023-05-14T01:13:41.638Z,8.85
2023-05-14T01:16:17.359Z,9.30
2023-05-14T01:18:55.793Z,8.63
2023-05-14T01:21:41.339Z,8.65
2023-05-14T01:24:16.173Z,8.48
2023-05-14T01:26:53.274Z,8.52
2023-05-14T01:30:09.663Z,8.20
2023-05-14T01:33:11.557Z,8.43
2023-05-14T01:35:45.017Z,8.52
2023-05-14T01:38:25.861Z,8.93
2023-05-14T01:41:05.185Z,8.60
2023-05-14T01:43:48.373Z,9.02
2023-05-14T01:46:25.947Z,8.20
2023-05-14T01:49:00.977Z,8.52
2023-05-14T01:51:33.596Z,8.43
2023-05-14T01:54:10.912Z,7.90
2023-05-14T01:56:43.230Z,8.20
2023-05-14T01:59:16.305Z,7.80
2023-05-14T02:01:48.446Z,7.60
2023-05-14T02:04:22.413Z,7.60
2023-05-14T02:06:57.216Z,8.00
2023-05-14T02:09:32.733Z,8.35
2023-05-14T02:12:04.810Z,8.20
2023-05-14T02:14:38.980Z,7.45
2023-05-14T02:17:13.248Z,8.40
2023-05-14T02:19:46.793Z,7.20
2023-05-14T02:22:18.896Z,7.35
2023-05-14T02:24:54.441Z,8.00
2023-05-14T02:27:26.532Z,6.25
2023-05-14T02:30:09.811Z,6.22
2023-05-14T02:32:45.363Z,6.60
2023-05-14T02:35:18.137Z,6.65
2023-05-14T02:37:50.284Z,6.60
2023-05-14T02:40:25.634Z,6.43
2023-05-14T02:42:57.655Z,6.43
2023-05-14T02:45:30.231Z,6.70
2023-05-14T02:48:06.711Z,6.88
2023-05-14T02:50:39.301Z,6.03
2023-05-14T02:53:11.414Z,6.72
2023-05-14T02:55:47.154Z,6.60
2023-05-14T02:58:20.413Z,6.78
2023-05-14T03:01:03.228Z,6.10
2023-05-14T03:03:35.798Z,6.85
2023-05-14T03:06:08.878Z,6.72
2023-05-14T03:08:40.916Z,6.63
2023-05-14T03:11:16.098Z,7.18
2023-05-14T03:13:48.074Z,6.53
2023-05-14T03:16:21.830Z,6.78
2023-05-14T03:18:54.135Z,6.80
2023-05-14T03:21:26.681Z,6.80
2023-05-14T03:23:58.569Z,6.55
2023-05-14T03:26:34.264Z,6.35
2023-05-14T03:29:07.193Z,6.10
2023-05-14T03:31:42.799Z,6.30
2023-05-14T03:34:14.808Z,6.60
2023-05-14T03:36:47.135Z,6.93
2023-05-14T03:39:22.484Z,6.10
2023-05-14T03:41:57.617Z,6.22
2023-05-14T03:44:41.075Z,6.55
2023-05-14T03:47:16.420Z,6.55
2023-05-14T03:49:48.813Z,6.45
2023-05-14T03:52:24.008Z,6.07
2023-05-14T03:54:56.283Z,6.22
2023-05-14T03:57:37.162Z,6.38
2023-05-14T04:00:21.969Z,5.80
2023-05-14T04:02:56.007Z,6.50
2023-05-14T04:05:29.197Z,6.10
2023-05-14T04:08:02.480Z,6.18
2023-05-14T04:10:36.765Z,5.80
2023-05-14T04:13:13.403Z,6.43
2023-05-14T04:15:47.123Z,6.47
2023-05-14T04:18:19.563Z,6.30
2023-05-14T04:20:51.433Z,6.20
2023-05-14T04:23:25.082Z,5.95
2023-05-14T04:25:57.135Z,5.60
2023-05-14T04:28:37.363Z,5.70
2023-05-14T04:31:09.477Z,6.47
2023-05-14T04:33:42.280Z,5.88
2023-05-14T04:36:14.390Z,6.90
2023-05-14T04:38:54.945Z,5.80
2023-05-14T04:41:27.072Z,6.40
2023-05-14T04:44:04.127Z,6.30
2023-05-14T04:46:36.215Z,6.43
2023-05-14T04:49:08.748Z,6.50
2023-05-14T04:51:40.768Z,6.63
2023-05-14T04:54:44.296Z,6.43
2023-05-14T04:57:16.353Z,6.32
2023-05-14T04:59:56.249Z,5.97
2023-05-14T05:02:28.173Z,6.45
2023-05-14T05:05:00.666Z,6.88
2023-05-14T05:07:32.709Z,6.30
2023-05-14T05:10:05.273Z,6.30
2023-05-14T05:12:37.484Z,6.95
2023-05-14T05:15:13.688Z,6.53
2023-05-14T05:17:45.894Z,6.07
2023-05-14T05:20:18.572Z,6.20
2023-05-14T05:22:50.689Z,6.05
2023-05-14T05:25:23.548Z,5.97
2023-05-14T05:27:56.480Z,6.50
2023-05-14T05:30:35.137Z,6.20
2023-05-14T05:33:07.929Z,6.40
2023-05-14T05:35:40.835Z,6.47
2023-05-14T05:38:16.026Z,6.60
2023-05-14T05:40:48.651Z,6.40
2023-05-14T05:44:09.139Z,5.95
2023-05-14T05:46:45.043Z,5.97
2023-05-14T05:49:17.153Z,5.95
2023-05-14T05:51:49.830Z,6.55
2023-05-14T05:54:24.446Z,6.20
2023-05-14T05:56:57.171Z,6.05
2023-05-14T05:59:38.429Z,6.35
2023-05-14T06:02:13.777Z,6.80
2023-05-14T06:04:46.026Z,6.60
2023-05-14T06:07:21.470Z,6.50
2023-05-14T06:09:57.273Z,6.72
2023-05-14T06:12:30.479Z,6.40
2023-05-14T06:15:02.670Z,6.60
2023-05-14T06:17:38.044Z,6.40
2023-05-14T06:20:12.468Z,5.68
2023-05-14T06:22:52.856Z,6.50
2023-05-14T06:25:32.448Z,6.22
2023-05-14T06:28:04.927Z,6.10
2023-05-14T06:30:37.142Z,6.10
2023-05-14T06:33:15.506Z,5.80
2023-05-14T06:35:47.551Z,6.18
2023-05-14T06:38:19.993Z,6.20
2023-05-14T06:40:52.234Z,5.97
2023-05-14T06:43:24.966Z,6.80
2023-05-14T06:45:57.397Z,6.45
2023-05-14T06:48:35.617Z,6.47
2023-05-14T06:51:07.874Z,6.22
2023-05-14T06:53:40.652Z,6.15
2023-05-14T06:56:13.764Z,11.52
2023-05-14T06:58:47.822Z,6.63
2023-05-14T07:01:20.804Z,6.28
2023-05-14T07:03:58.220Z,6.10
2023-05-14T07:06:31.311Z,5.78
2023-05-14T07:09:05.488Z,5.43
2023-05-14T07:11:37.849Z,6.13
2023-05-14T07:14:10.326Z,6.03
2023-05-14T07:17:04.131Z,5.53
2023-05-14T07:19:41.441Z,5.90
2023-05-14T07:22:14.551Z,5.43
2023-05-14T07:24:47.333Z,5.70
2023-05-14T07:27:19.854Z,5.72
2023-05-14T07:29:59.962Z,5.53
2023-05-14T07:32:32.155Z,5.70
2023-05-14T07:35:08.773Z,5.68
2023-05-14T07:37:41.255Z,5.35
2023-05-14T07:40:14.703Z,5.40
2023-05-14T07:42:55.775Z,5.50
2023-05-14T07:45:31.618Z,5.07
2023-05-14T07:48:03.874Z,4.68
2023-05-14T07:50:42.110Z,4.70
2023-05-14T07:53:14.318Z,4.53
2023-05-14T07:56:03.008Z,4.82
2023-05-14T07:58:38.400Z,5.00
2023-05-14T08:01:10.992Z,4.60
2023-05-14T08:03:43.224Z,6.53
2023-05-14T08:06:18.923Z,5.72
2023-05-14T08:09:15.272Z,4.68
2023-05-14T08:11:48.200Z,5.60
2023-05-14T08:14:22.234Z,5.13
2023-05-14T08:17:02.562Z,4.15
2023-05-14T08:19:36.962Z,4.25
2023-05-14T08:22:14.800Z,4.40
2023-05-14T08:24:49.304Z,4.25
2023-05-14T08:27:42.817Z,4.15
2023-05-14T08:30:18.457Z,4.10
2023-05-14T08:32:55.165Z,4.25
2023-05-14T08:35:27.655Z,4.13
2023-05-14T08:38:10.654Z,3.80
2023-05-14T08:40:58.541Z,3.92
2023-05-14T08:43:34.758Z,3.72
2023-05-14T08:46:10.535Z,4.20
2023-05-14T08:48:51.807Z,3.95
2023-05-14T08:51:25.494Z,3.67
2023-05-14T08:54:05.846Z,3.97
2023-05-14T08:56:45.688Z,3.70
2023-05-14T08:59:18.481Z,4.60
2023-05-14T09:01:58.072Z,4.07
2023-05-14T09:04:32.230Z,3.65
2023-05-14T09:07:11.859Z,3.72
2023-05-14T09:09:48.914Z,3.97
2023-05-14T09:12:21.054Z,3.72
2023-05-14T09:14:58.524Z,3.83
2023-05-14T09:17:33.530Z,3.90
2023-05-14T09:20:11.471Z,3.55
2023-05-14T09:22:43.659Z,3.67
2023-05-14T09:25:34.652Z,3.35
2023-05-14T09:28:10.993Z,3.45
2023-05-14T09:31:01.775Z,3.70
2023-05-14T09:33:34.571Z,3.55
2023-05-14T09:36:08.073Z,3.42
2023-05-14T09:38:40.823Z,3.65
2023-05-14T09:41:36.913Z,3.40
2023-05-14T09:44:11.296Z,3.10
2023-05-14T09:46:58.449Z,3.28
2023-05-14T09:49:32.434Z,3.67
2023-05-14T09:52:11.322Z,3.38
2023-05-14T09:54:44.999Z,3.58
2023-05-14T09:57:30.993Z,3.83
2023-05-14T10:03:08.598Z,3.55
2023-05-14T10:05:45.718Z,3.83
2023-05-14T10:08:28.086Z,3.70
2023-05-14T10:11:03.031Z,4.03
2023-05-14T10:13:45.828Z,3.58
2023-05-14T10:16:23.858Z,3.60
2023-05-14T10:18:57.935Z,3.67
2023-05-14T10:21:38.558Z,3.88
2023-05-14T10:24:13.550Z,4.00
2023-05-14T10:26:48.592Z,3.92
2023-05-14T10:29:53.038Z,4.18
2023-05-14T10:33:10.019Z,3.72
2023-05-14T10:36:14.810Z,4.10
2023-05-14T10:38:48.280Z,4.03
2023-05-14T10:41:31.080Z,4.20
2023-05-14T10:44:17.471Z,3.90
2023-05-14T10:47:01.325Z,4.15
2023-05-14T10:49:43.473Z,4.18
2023-05-14T10:52:19.868Z,4.63
2023-05-14T10:55:03.374Z,3.42
2023-05-14T10:57:37.398Z,3.72
2023-05-14T11:00:17.541Z,3.90
2023-05-14T11:02:52.821Z,3.83
2023-05-14T11:05:28.253Z,3.85
2023-05-14T11:08:12.052Z,4.00
2023-05-14T11:10:49.218Z,4.07
2023-05-14T11:13:44.694Z,4.18
2023-05-14T11:16:23.811Z,4.30
2023-05-14T11:19:11.090Z,4.05
2023-05-14T11:21:45.449Z,3.90
2023-05-14T11:24:18.559Z,9.38
2023-05-14T12:13:38.663Z,4.50
2023-05-14T12:16:37.621Z,4.90
2023-05-14T12:19:26.922Z,4.38
2023-05-14T12:22:05.900Z,4.47
2023-05-14T12:31:15.428Z,4.78
2023-05-14T12:34:04.961Z,4.75
2023-05-14T12:36:44.728Z,4.32
2023-05-14T12:39:40.304Z,5.55
2023-05-14T12:42:12.748Z,6.90
2023-05-14T12:44:49.389Z,10.05
2023-05-14T12:47:35.358Z,14.38
2023-05-14T12:57:31.943Z,4.70
2023-05-14T13:04:16.082Z,4.10
2023-05-14T13:06:49.048Z,4.43
2023-05-14T13:09:23.436Z,4.28
2023-05-14T13:12:09.549Z,3.95
2023-05-14T13:14:42.271Z,4.07
2023-05-14T13:17:18.538Z,4.05
2023-05-14T13:19:57.223Z,3.95
2023-05-14T13:22:29.585Z,4.05
2023-05-14T13:25:02.291Z,3.90
2023-05-14T13:27:36.136Z,3.85
2023-05-14T13:30:08.871Z,4.13
2023-05-14T13:32:42.259Z,4.30
2023-05-14T13:35:17.652Z,4.45
2023-05-14T13:37:50.655Z,3.53
2023-05-14T13:40:25.890Z,4.10
2023-05-14T13:43:00.310Z,4.38
2023-05-14T13:45:35.622Z,4.57
2023-05-14T13:51:21.294Z,4.80
2023-05-14T13:56:46.837Z,4.70
2023-05-14T13:59:19.149Z,4.05
2023-05-14T14:01:52.030Z,4.20
2023-05-14T14:07:17.588Z,4.85
2023-05-14T14:09:49.453Z,3.85
2023-05-14T14:12:22.106Z,4.30
2023-05-14T14:14:54.424Z,4.60
2023-05-14T14:17:26.917Z,4.38
2023-05-14T14:20:11.525Z,7.80
2023-05-14T14:22:51.071Z,6.97
2023-05-14T14:25:24.041Z,4.50
2023-05-14T14:27:56.690Z,4.32
2023-05-14T14:30:28.697Z,4.60
2023-05-14T14:33:01.660Z,4.20
2023-05-14T14:35:35.730Z,4.32
2023-05-14T14:38:11.155Z,4.15
2023-05-14T14:40:43.390Z,4.53
2023-05-14T14:43:16.917Z,4.00
2023-05-14T14:45:49.448Z,5.03
2023-05-14T14:48:34.628Z,6.93
2023-05-14T14:51:11.345Z,4.13
2023-05-14T14:53:46.871Z,4.60
2023-05-14T14:56:19.404Z,3.80
2023-05-14T14:58:52.149Z,3.85
2023-05-14T15:01:25.540Z,4.18
2023-05-14T15:03:58.316Z,3.70
2023-05-14T15:06:36.289Z,4.07
2023-05-14T15:09:11.796Z,3.75
2023-05-14T15:11:44.415Z,3.20
2023-05-14T15:14:17.261Z,3.47
2023-05-14T15:16:51.190Z,3.92
2023-05-14T15:19:25.452Z,4.18
2023-05-14T15:21:58.056Z,3.40
2023-05-14T15:24:36.362Z,3.33
2023-05-14T15:27:13.557Z,4.30
2023-05-14T15:29:46.508Z,3.92
2023-05-14T15:32:21.132Z,4.72
2023-05-14T15:34:53.915Z,4.57
2023-05-14T15:37:28.318Z,4.30
2023-05-14T15:40:03.656Z,4.25
2023-05-14T15:42:36.109Z,4.07
2023-05-14T15:45:09.728Z,4.32
2023-05-14T15:47:42.356Z,3.90
2023-05-14T15:50:15.782Z,4.10
2023-05-14T15:52:48.903Z,3.95
2023-05-14T15:55:27.238Z,4.00
2023-05-14T15:57:59.733Z,3.85
2023-05-14T16:00:32.334Z,3.92
2023-05-14T16:03:05.520Z,4.15
2023-05-14T16:05:38.329Z,4.63
2023-05-14T16:08:12.193Z,4.60
2023-05-14T16:10:47.796Z,5.10
2023-05-14T16:13:20.097Z,4.35
2023-05-14T16:16:04.776Z,4.22
2023-05-14T16:18:37.449Z,3.92
2023-05-14T16:21:10.223Z,4.38
2023-05-14T16:23:42.486Z,4.18
2023-05-14T16:26:17.837Z,4.30
2023-05-14T16:28:50.031Z,4.35
2023-05-14T16:31:25.860Z,4.00
2023-05-14T16:33:58.898Z,4.10
2023-05-14T16:36:31.819Z,4.97
2023-05-14T16:39:08.070Z,4.50
2023-05-14T16:41:44.295Z,4.30
2023-05-14T16:44:16.846Z,3.92
2023-05-14T16:46:51.535Z,4.03
2023-05-14T16:49:24.278Z,4.43
2023-05-14T16:51:57.199Z,4.20
2023-05-14T16:54:38.598Z,4.38
2023-05-14T16:57:16.151Z,4.05
2023-05-14T16:59:48.542Z,4.03
2023-05-14T17:02:23.629Z,4.80
2023-05-14T17:04:56.250Z,4.30
2023-05-14T17:07:29.556Z,4.25
2023-05-14T17:10:02.039Z,4.82
2023-05-14T17:12:37.647Z,4.25
2023-05-14T17:15:12.592Z,3.92
2023-05-14T17:17:53.085Z,4.07
2023-05-14T17:20:45.770Z,4.05
2023-05-14T17:23:19.762Z,6.82
2023-05-14T17:25:52.889Z,4.53
2023-05-14T17:28:30.378Z,4.40
2023-05-14T17:31:05.519Z,4.18
2023-05-14T17:33:37.696Z,4.70
2023-05-14T17:36:10.625Z,4.65
2023-05-14T17:38:43.039Z,4.32
2023-05-14T17:41:16.254Z,4.63
2023-05-14T17:53:43.913Z,4.63
2023-05-14T17:56:19.105Z,4.80
2023-05-14T17:58:52.737Z,5.00
2023-05-14T18:04:17.943Z,5.35
2023-05-14T18:06:50.610Z,4.95
2023-05-14T18:09:26.044Z,5.43
2023-05-14T18:12:01.497Z,4.90
2023-05-14T18:14:33.386Z,4.60
2023-05-14T18:17:06.495Z,5.28
2023-05-14T18:19:38.714Z,4.80
2023-05-14T18:22:12.445Z,4.90
2023-05-14T18:24:48.490Z,4.97
2023-05-14T18:27:21.474Z,4.93
2023-05-14T18:29:53.734Z,4.38
2023-05-14T18:32:27.027Z,4.90
2023-05-14T18:35:00.119Z,4.63
2023-05-14T18:37:37.073Z,4.80
2023-05-14T18:40:17.748Z,4.78
2023-05-14T18:42:51.376Z,5.15
2023-05-14T18:49:47.838Z,5.20
2023-05-14T18:52:21.756Z,5.90
2023-05-14T18:54:55.445Z,6.07
2023-05-14T18:57:33.389Z,6.07
2023-05-14T19:00:07.788Z,6.35
2023-05-14T19:02:41.762Z,6.30
2023-05-14T19:05:15.648Z,6.00
2023-05-14T19:07:56.558Z,6.22
2023-05-14T19:10:30.345Z,6.35
2023-05-14T19:13:08.171Z,5.78
2023-05-14T19:15:41.429Z,6.00
2023-05-14T19:18:15.881Z,5.65
2023-05-14T19:20:49.688Z,7.78
2023-05-14T19:23:22.965Z,10.25
2023-05-14T19:25:55.482Z,5.60
2023-05-14T19:28:31.907Z,5.03
2023-05-14T19:31:19.978Z,5.40
2023-05-14T19:33:53.858Z,5.75
2023-05-14T19:36:27.524Z,5.80
2023-05-14T19:39:00.237Z,5.47
2023-05-14T19:41:33.243Z,5.88
2023-05-14T19:44:11.342Z,6.38
2023-05-14T19:46:44.254Z,6.60
2023-05-14T19:49:17.720Z,6.10
2023-05-14T19:51:50.324Z,5.93
2023-05-14T19:54:23.643Z,6.25
2023-05-14T19:56:57.866Z,6.20
2023-05-14T20:02:29.776Z,5.60
2023-05-14T20:05:09.465Z,6.18
2023-05-14T20:07:42.595Z,5.70
2023-05-14T20:10:16.593Z,6.18
2023-05-14T20:12:49.561Z,6.30
2023-05-14T20:15:26.914Z,5.90
2023-05-14T20:18:01.881Z,6.00
2023-05-14T20:20:36.263Z,5.72
2023-05-14T20:23:14.009Z,5.60
2023-05-14T20:25:49.881Z,6.18
2023-05-14T20:28:23.181Z,6.22
2023-05-14T20:31:04.748Z,5.82
2023-05-14T20:33:40.735Z,6.20
2023-05-14T20:36:16.742Z,6.22
2023-05-14T20:38:54.278Z,5.88
2023-05-14T20:41:27.815Z,6.32
2023-05-14T20:44:00.330Z,6.10
2023-05-14T20:46:36.530Z,7.25
2023-05-14T20:49:09.768Z,7.63
2023-05-14T20:51:44.054Z,7.38
2023-05-14T20:54:18.387Z,6.43
2023-05-14T20:57:50.286Z,6.15
2023-05-14T21:00:36.014Z,6.20
2023-05-14T21:03:11.556Z,7.00
2023-05-14T21:05:44.250Z,6.60
2023-05-14T21:08:16.592Z,6.45
2023-05-14T21:10:48.940Z,6.07
2023-05-14T21:13:21.039Z,6.28
2023-05-14T21:15:53.564Z,6.50
2023-05-14T21:18:31.273Z,6.35
2023-05-14T21:21:04.084Z,6.32
2023-05-14T21:23:35.955Z,6.10
2023-05-14T21:26:08.409Z,5.88
2023-05-14T21:28:40.385Z,6.47
2023-05-14T21:31:12.844Z,6.50
2023-05-14T21:33:47.377Z,6.47
2023-05-14T21:36:20.898Z,7.13
2023-05-14T21:38:52.777Z,6.70
2023-05-14T21:41:25.017Z,7.00
2023-05-14T21:43:56.978Z,6.80
2023-05-14T21:46:29.439Z,7.10
2023-05-14T21:49:04.136Z,7.28
2023-05-14T21:51:36.439Z,6.90
2023-05-14T21:54:10.752Z,7.15
2023-05-14T21:56:43.241Z,7.28
2023-05-14T21:59:15.338Z,7.10
2023-05-14T22:02:05.481Z,6.68
2023-05-14T22:04:41.820Z,7.85
2023-05-14T22:07:14.299Z,7.40
2023-05-14T22:09:46.153Z,7.45
2023-05-14T22:12:18.597Z,7.25
2023-05-14T22:14:53.229Z,6.70
2023-05-14T22:17:25.783Z,7.38
2023-05-14T22:20:00.912Z,7.90
2023-05-14T22:22:33.205Z,8.02
2023-05-14T22:25:05.390Z,7.50
2023-05-14T22:27:37.770Z,8.32
2023-05-14T22:30:11.550Z,8.30
2023-05-14T22:32:44.199Z,9.48
2023-05-14T22:35:19.606Z,9.18
2023-05-14T22:37:52.031Z,8.73
2023-05-14T22:40:24.264Z,9.18
2023-05-14T22:42:56.528Z,9.07
2023-05-14T22:45:28.828Z,8.98
2023-05-14T22:48:02.620Z,8.98
2023-05-14T22:50:58.986Z,8.68
2023-05-14T22:53:52.966Z,9.38
2023-05-14T22:56:25.695Z,9.80
2023-05-14T22:59:00.713Z,10.15
2023-05-14T23:01:35.738Z,9.30
2023-05-14T23:04:08.592Z,10.18
2023-05-14T23:09:29.970Z,9.70
2023-05-14T23:12:02.047Z,10.13
2023-05-14T23:14:34.335Z,10.63
2023-05-14T23:17:06.253Z,10.73
2023-05-14T23:19:38.682Z,10.27
2023-05-14T23:22:13.510Z,10.60
2023-05-14T23:24:45.740Z,10.20
2023-05-14T23:27:17.595Z,10.70
2023-05-14T23:29:49.879Z,10.30
2023-05-14T23:32:21.773Z,9.60
2023-05-14T23:34:53.959Z,10.93
2023-05-14T23:37:29.864Z,10.82
2023-05-14T23:40:05.048Z,11.38
2023-05-14T23:42:37.769Z,10.63
2023-05-14T23:45:11.682Z,11.73
2023-05-14T23:47:44.575Z,11.30
2023-05-14T23:50:17.186Z,11.25
2023-05-14T23:52:54.835Z,11.45
2023-05-14T23:55:27.574Z,11.43
2023-05-14T23:57:59.610Z,11.73
